• Join FlightAware (Why Join?)
  • Login
  • US Flag GB Flag 
06:55 EST


 

Airport Tracker/Info


-or-


 

Live Flight TrackerFlight Track Log ✈ SWA1618 ✈ 06-Jul-2013 ✈ KMDW - KDEN

Flight Track Log - Related Links

Times and Time Zones

All times are in EDT time to prevent confusion due to time zone crossing. See the SWA1618 flight status page for this flight to view local times or setup timezone preferences in your user account.

Time Position Orientation Groundspeed Altitude Reporting Facility
EDT Latitude Longitude Course Direction KTS MPH feet Rate Location/Type
09:48 41.7500 -87.9167 270° West 240 276 3,000  Level Chicago TRACON
09:48 41.7500 -87.9167 270° West 240 276 3,000 963 Level Chicago TRACON
09:50 41.7556 -88.0278 274° West 242 278 4,300 963 Climbing Chicago Center
09:50 41.7556 -88.0278 274° West 242 278 4,300 1,645 Level Chicago Center
09:51 41.7817 -88.1244 290° West 273 314 6,000 1,645 Climbing Chicago Center
09:51 41.7817 -88.1244 290° West 273 314 6,000 197 Level Chicago Center
09:52 41.8131 -88.2400 290° West 279 321 6,200 197 Climbing Chicago Center
09:52 41.8131 -88.2400 290° West 279 321 6,200 3,000 Level Chicago Center
09:53 41.7266 -88.6619 263° West  Level FlightAware Approximate
09:53 41.7266 -88.6619 263° West  Level FlightAware Approximate
09:53 41.8458 -88.3333 295° West 287 330 9,300  Level Chicago Center
09:53 41.8458 -88.3333 295° West 287 330 9,300 2,951 Level Chicago Center
09:54 41.8447 -88.4425 269° West 293 337 12,300 2,951 Climbing Chicago Center
09:54 41.8447 -88.4425 269° West 293 337 12,300 677 Level Chicago Center
09:55 41.8428 -88.5661 269° West 328 377 13,000 677 Climbing Chicago Center
09:55 41.8428 -88.5661 269° West 328 377 13,000 2,226 Level Chicago Center
09:56 41.8314 -88.7000 264° West 358 412 15,300 2,226 Climbing Chicago Center
09:56 41.8314 -88.7000 264° West 358 412 15,300 2,557 Level Chicago Center
09:57 41.8186 -88.8378 263° West 373 429 17,900 2,557 Climbing Chicago Center
09:57 41.8186 -88.8378 263° West 373 429 17,900 3,097 Level Chicago Center
09:58 41.8036 -89.0147 264° West 399 459 21,100 3,097 Climbing Chicago Center
09:58 41.8036 -89.0147 264° West 399 459 21,100 1,810 Level Chicago Center
09:59 41.7908 -89.1650 264° West 410 472 23,000 1,810 Climbing Chicago Center
09:59 41.7908 -89.1650 264° West 410 472 23,000 1,548 Level Chicago Center
10:00 41.7806 -89.3178 265° West 412 474 24,600 1,548 Climbing Chicago Center
10:00 41.7806 -89.3178 265° West 412 474 24,600 1,935 Level Chicago Center
10:01 41.7803 -89.4706 270° West 413 475 26,600 1,935 Climbing Chicago Center
10:01 41.7803 -89.4706 270° West 413 475 26,600 1,548 Level Chicago Center
10:02 41.7844 -89.6483 272° West 433 498 28,200 1,548 Climbing Chicago Center
10:02 41.7844 -89.6483 272° West 433 498 28,200 1,475 Level Chicago Center
10:03 41.7900 -89.8192 273° West 458 527 29,700 1,475 Climbing Chicago Center
10:03 41.7900 -89.8192 273° West 458 527 29,700 2,323 Level Chicago Center
10:04 41.7992 -90.0144 274° West 461 531 32,100 2,323 Climbing Chicago Center
10:04 41.7992 -90.0144 274° West 461 531 32,100 1,839 Level Chicago Center
10:05 41.8014 -90.1803 271° West 450 518 34,000 1,839 Climbing Chicago Center
10:05 41.8014 -90.1803 271° West 450 518 34,000 984 Level Chicago Center
10:06 41.8006 -90.3472 270° West 451 519 35,000 984 Climbing Chicago Center
10:06 41.8006 -90.3472 270° West 451 519 35,000 968 Level Chicago Center
10:07 41.7772 -90.5336 261° West 471 542 36,000 968 Climbing Chicago Center
10:07 41.7772 -90.5336 261° West 471 542 36,000 968 Level Chicago Center
10:08 41.7594 -90.6950 262° West 470 541 37,000 968 Climbing Chicago Center
10:08 41.7594 -90.6950 262° West 470 541 37,000 968 Level Chicago Center
10:09 41.7411 -90.8669 262° West 469 540 38,000 968 Climbing Chicago Center
10:09 41.7411 -90.8669 262° West 469 540 38,000  Level Chicago Center
10:10 41.7203 -91.0406 261° West 472 543 38,000  Level Chicago Center
10:10 41.7203 -91.0406 261° West 472 543 38,000  Level Chicago Center
10:11 41.6953 -91.2489 261° West 474 545 38,000  Level Chicago Center
10:11 41.6953 -91.2489 261° West 474 545 38,000  Level Chicago Center
10:12 41.6767 -91.4197 262° West 469 540 38,000  Level Chicago Center
10:12 41.6767 -91.4197 262° West 469 540 38,000  Level Chicago Center
10:13 41.6556 -91.5892 261° West 467 537 38,000  Level Chicago Center
10:13 41.6556 -91.5892 261° West 467 537 38,000  Level Chicago Center
10:14 41.6342 -91.7561 260° West 461 531 38,000  Level Chicago Center
10:14 41.6342 -91.7561 260° West 461 531 38,000  Level Chicago Center
10:15 41.6144 -91.9236 261° West 459 528 38,000  Level Chicago Center
10:15 41.6144 -91.9236 261° West 459 528 38,000  Level Chicago Center
10:16 41.5931 -92.0897 260° West 457 526 38,000  Level Chicago Center
10:16 41.5931 -92.0897 260° West 457 526 38,000  Level Chicago Center
10:18 41.5683 -92.2892 261° West 457 526 38,000  Level Chicago Center
10:18 41.5683 -92.2892 261° West 457 526 38,000  Level Chicago Center
10:19 41.5469 -92.4519 260° West 450 518 38,000  Level Chicago Center
10:19 41.5469 -92.4519 260° West 450 518 38,000  Level Chicago Center
10:20 41.5253 -92.6181 260° West 455 524 38,000  Level Chicago Center
10:20 41.5253 -92.6181 260° West 455 524 38,000  Level Chicago Center
10:20 41.5081 -92.7433 260° West 455 524 38,000  Level Minneapolis Center
10:20 41.5081 -92.7433 260° West 455 524 38,000  Level Minneapolis Center
10:21 41.4864 -92.9075 260° West 456 525 38,000  Level Minneapolis Center
10:21 41.4864 -92.9075 260° West 456 525 38,000  Level Minneapolis Center
10:22 41.4650 -93.0736 260° West 457 526 38,000  Level Minneapolis Center
10:22 41.4650 -93.0736 260° West 457 526 38,000  Level Minneapolis Center
10:23 41.4425 -93.2378 260° West 457 526 38,000  Level Minneapolis Center
10:23 41.4425 -93.2378 260° West 457 526 38,000  Level Minneapolis Center
10:24 41.4194 -93.4033 260° West 459 528 38,000  Level Minneapolis Center
10:24 41.4194 -93.4033 260° West 459 528 38,000  Level Minneapolis Center
10:25 41.3969 -93.5647 260° West 452 520 38,000  Level Minneapolis Center
10:25 41.3969 -93.5647 260° West 452 520 38,000  Level Minneapolis Center
10:26 41.3700 -93.7631 260° West 453 521 38,000  Level Minneapolis Center
10:26 41.3700 -93.7631 260° West 453 521 38,000  Level Minneapolis Center
10:27 41.3450 -93.9325 259° West 461 531 38,000  Level Minneapolis Center
10:27 41.3450 -93.9325 259° West 461 531 38,000  Level Minneapolis Center
10:28 41.3206 -94.0981 259° West 464 534 38,000  Level Minneapolis Center
10:28 41.3206 -94.0981 259° West 464 534 38,000  Level Minneapolis Center
10:29 41.2983 -94.2619 260° West 454 522 38,000  Level Minneapolis Center
10:29 41.2983 -94.2619 260° West 454 522 38,000  Level Minneapolis Center
10:31 41.2733 -94.4286 259° West 457 526 38,000  Level Minneapolis Center
10:31 41.2733 -94.4286 259° West 457 526 38,000  Level Minneapolis Center
10:32 41.2492 -94.5939 259° West 457 526 38,000  Level Minneapolis Center
10:32 41.2492 -94.5939 259° West 457 526 38,000  Level Minneapolis Center
10:33 41.2194 -94.7936 259° West 458 527 38,000  Level Minneapolis Center
10:33 41.2194 -94.7936 259° West 458 527 38,000  Level Minneapolis Center
10:34 41.1933 -94.9597 258° West 460 529 38,000  Level Minneapolis Center
10:34 41.1933 -94.9597 258° West 460 529 38,000  Level Minneapolis Center
10:35 41.1675 -95.1256 258° West 459 528 38,000  Level Minneapolis Center
10:35 41.1675 -95.1256 258° West 459 528 38,000  Level Minneapolis Center
10:36 41.1414 -95.2925 258° West 460 529 38,000  Level Minneapolis Center
10:36 41.1414 -95.2925 258° West 460 529 38,000  Level Minneapolis Center
10:37 41.1139 -95.4583 258° West 459 528 38,000  Level Minneapolis Center
10:37 41.1139 -95.4583 258° West 459 528 38,000  Level Minneapolis Center
10:38 41.0878 -95.6242 258° West 457 526 38,000  Level Minneapolis Center
10:38 41.0878 -95.6242 258° West 457 526 38,000  Level Minneapolis Center
10:39 41.0597 -95.7878 257° West 454 522 38,000  Level Minneapolis Center
10:39 41.0597 -95.7878 257° West 454 522 38,000  Level Minneapolis Center
10:40 41.0339 -95.9539 258° West 454 522 38,000  Level Minneapolis Center
10:40 41.0339 -95.9539 258° West 454 522 38,000  Level Minneapolis Center
10:41 41.0081 -96.1186 258° West 453 521 38,000  Level Minneapolis Center
10:41 41.0081 -96.1186 258° West 453 521 38,000  Level Minneapolis Center
10:42 40.9756 -96.3142 258° West 451 519 38,000  Level Minneapolis Center
10:42 40.9756 -96.3142 258° West 451 519 38,000  Level Minneapolis Center
10:43 40.9478 -96.4783 257° West 453 521 38,000  Level Minneapolis Center
10:43 40.9478 -96.4783 257° West 453 521 38,000  Level Minneapolis Center
10:44 40.9211 -96.6411 258° West 453 521 38,000  Level Minneapolis Center
10:44 40.9211 -96.6411 258° West 453 521 38,000  Level Minneapolis Center
10:45 40.8931 -96.8036 257° West 452 520 38,000  Level Minneapolis Center
10:45 40.8931 -96.8036 257° West 452 520 38,000  Level Minneapolis Center
10:46 40.8644 -96.9644 257° West 451 519 38,000  Level Minneapolis Center
10:46 40.8644 -96.9644 257° West 451 519 38,000  Level Minneapolis Center
10:47 40.8386 -97.1258 258° West 450 518 38,000  Level Minneapolis Center
10:47 40.8386 -97.1258 258° West 450 518 38,000  Level Minneapolis Center
10:48 40.8108 -97.2864 257° West 449 517 38,000  Level Minneapolis Center
10:48 40.8108 -97.2864 257° West 449 517 38,000 97 Level Minneapolis Center
10:49 40.7769 -97.4717 256° West 449 517 38,100 97 Climbing Minneapolis Center
10:49 40.7769 -97.4717 256° West 449 517 38,100  Level Minneapolis Center
10:50 40.7558 -97.6356 260° West 452 520 38,100  Level Minneapolis Center
10:50 40.7558 -97.6356 260° West 452 520 38,100  Level Minneapolis Center
10:51 40.7628 -97.7983 273° West 446 513 38,100  Level Minneapolis Center
10:51 40.7628 -97.7983 273° West 446 513 38,100 -97 Level Minneapolis Center
10:52 40.7656 -97.9622 271° West 445 512 38,000 -97 Descending Minneapolis Center
10:52 40.7656 -97.9622 271° West 445 512 38,000 97 Level Minneapolis Center
10:53 40.7681 -98.1244 271° West 442 509 38,100 97 Climbing Minneapolis Center
10:53 40.7681 -98.1244 271° West 442 509 38,100  Level Minneapolis Center
10:54 40.7719 -98.3208 272° West 444 511 38,100  Level Minneapolis Center
10:54 40.7719 -98.3208 272° West 444 511 38,100 -97 Level Minneapolis Center
10:55 40.7744 -98.4553 271° West 442 509 38,000 -97 Descending Minneapolis Center
10:55 40.7744 -98.4553 271° West 442 509 38,000  Level Minneapolis Center
10:56 40.7761 -98.6483 271° West 440 506 38,000  Level Minneapolis Center
10:56 40.7761 -98.6483 271° West 440 506 38,000 97 Level Minneapolis Center
10:57 40.7778 -98.8086 271° West 438 504 38,100 97 Climbing Minneapolis Center
10:57 40.7778 -98.8086 271° West 438 504 38,100 -97 Level Minneapolis Center
10:58 40.7789 -98.9683 271° West 437 503 38,000 -97 Descending Minneapolis Center
10:58 40.7789 -98.9683 271° West 437 503 38,000 97 Level Minneapolis Center
10:59 40.7811 -99.1308 271° West 437 503 38,100 97 Climbing Minneapolis Center
10:59 40.7811 -99.1308 271° West 437 503 38,100  Level Minneapolis Center
11:00 40.7833 -99.2583 271° West 433 498 38,100  Level Denver Center
11:00 40.7833 -99.2583 271° West 433 498 38,100  Level Denver Center
11:01 40.7844 -99.4172 271° West 432 497 38,100  Level Denver Center
11:01 40.7844 -99.4172 271° West 432 497 38,100  Level Denver Center
11:02 40.7853 -99.5753 270° West 430 495 38,100  Level Denver Center
11:02 40.7853 -99.5753 270° West 430 495 38,100  Level Denver Center
11:03 40.7867 -99.7633 271° West 428 493 38,100  Level Denver Center
11:03 40.7867 -99.7633 271° West 428 493 38,100  Level Denver Center
11:04 40.7867 -99.9244 270° West 427 491 38,100  Level Denver Center
11:04 40.7867 -99.9244 270° West 427 491 38,100  Level Denver Center
11:05 40.7869 -100.0744 270° West 428 493 38,100  Level Denver Center
11:05 40.7869 -100.0744 270° West 428 493 38,100 -97 Level Denver Center
11:06 40.7869 -100.2236 270° West 425 489 38,000 -97 Descending Denver Center
11:06 40.7869 -100.2236 270° West 425 489 38,000 97 Level Denver Center
11:07 40.7769 -100.3975 266° West 426 490 38,100 97 Climbing Denver Center
11:07 40.7769 -100.3975 266° West 426 490 38,100  Level Denver Center
11:08 40.7539 -100.5461 258° West 429 494 38,100  Level Denver Center
11:08 40.7539 -100.5461 258° West 429 494 38,100  Level Denver Center
11:10 40.7250 -100.7217 258° West 431 496 38,100  Level Denver Center
11:10 40.7250 -100.7217 258° West 431 496 38,100  Level Denver Center
11:11 40.6978 -100.9003 259° West 436 502 38,100  Level Denver Center
11:11 40.6978 -100.9003 259° West 436 502 38,100  Level Denver Center
11:12 40.6722 -101.0703 259° West 423 487 38,100  Level Denver Center
11:12 40.6722 -101.0703 259° West 423 487 38,100  Level Denver Center
11:13 40.6497 -101.2144 258° West 421 484 38,100  Level Denver Center
11:13 40.6497 -101.2144 258° West 421 484 38,100  Level Denver Center
11:14 40.6231 -101.3828 258° West 420 483 38,100  Level Denver Center
11:14 40.6231 -101.3828 258° West 420 483 38,100 -290 Level Denver Center
11:15 40.5997 -101.5264 258° West 419 482 37,800 -290 Descending Denver Center
11:15 40.5997 -101.5264 258° West 419 482 37,800 -1,065 Level Denver Center
11:16 40.5719 -101.6956 258° West 422 486 36,700 -1,065 Descending Denver Center
11:16 40.5719 -101.6956 258° West 422 486 36,700 -871 Level Denver Center
11:17 40.5475 -101.8419 258° West 428 493 35,800 -871 Descending Denver Center
11:17 40.5475 -101.8419 258° West 428 493 35,800 -1,065 Level Denver Center
11:18 40.5208 -102.0142 259° West 432 497 34,700 -1,065 Descending Denver Center
11:18 40.5208 -102.0142 259° West 432 497 34,700 -581 Level Denver Center
11:19 40.4953 -102.1617 257° West 432 497 34,100 -581 Descending Denver Center
11:19 40.4953 -102.1617 257° West 432 497 34,100 -968 Level Denver Center
11:25 40.3456 -103.0467 258° West 383 441 28,100 -1,078 Descending Denver Center
11:26 40.3214 -103.1767 256° West 371 427 26,300 -1,680 Descending Denver Center
11:27 40.2994 -103.3017 257° West 358 412 24,600 -1,632 Descending Denver Center
11:28 40.2775 -103.4242 257° West 350 403 22,900 -1,790 Descending Denver Center
11:29 40.2511 -103.5656 256° West 336 387 20,900 -1,694 Descending Denver Center
11:30 40.2308 -103.6817 257° West 330 380 19,400 -1,548 Descending Denver Center
11:31 40.2100 -103.8008 257° West 321 369 17,700 -1,645 Descending Denver Center
11:32 40.1775 -103.9058 248° West 313 360 16,000 -1,742 Descending Denver Center
11:34 40.1272 -104.0103 238° Southwest 316 364 14,100 -1,452 Descending Denver Center
11:35 40.0839 -104.1044 239° Southwest 305 351 13,000 -581 Descending Denver Center
11:36 40.0089 -104.1417 201° Southwest 275 316 12,900 -726 Descending Denver Center
11:37 39.9714 -104.2139 236° Southwest 259 298 11,500 -1,403 Descending Denver Center
11:38 39.9397 -104.3094 247° West 288 331 10,000 -1,258 Descending Denver Center
11:39 39.9056 -104.4156 247° West 295 339 8,900 -823 Descending Denver Center
11:40 39.8767 -104.4814 240° Southwest 206 237 8,300 -1,161 Descending Denver Center
11:41 39.8764 -104.5492 270° West 174 200 6,500 -1,355 Descending Denver Center
11:42 39.8769 -104.6094 271° West 169 194 5,500 -581 Descending Denver Center
11:43 39.8764 -104.6547 269° West 157 181 5,300 -194 Descending Denver Center